createdAt,value
2022-11-26T00:01:00.831Z,5.36
2022-11-26T00:06:03.228Z,5.33
2022-11-26T00:11:08.129Z,5.30
2022-11-26T00:16:14.601Z,5.34
2022-11-26T00:21:25.907Z,5.32
2022-11-26T00:26:27.723Z,5.32
2022-11-26T00:31:29.761Z,5.34
2022-11-26T00:36:33.151Z,5.34
2022-11-26T00:41:40.881Z,5.35
2022-11-26T00:46:42.731Z,5.35
2022-11-26T00:51:46.797Z,5.32
2022-11-26T00:56:50.655Z,5.26
2022-11-26T01:01:52.507Z,5.22
2022-11-26T01:06:54.634Z,5.18
2022-11-26T01:11:56.456Z,5.14
2022-11-26T01:16:59.022Z,5.09
2022-11-26T01:22:01.162Z,5.02
2022-11-26T01:27:03.032Z,4.93
2022-11-26T01:32:05.140Z,4.86
2022-11-26T01:37:13.492Z,4.80
2022-11-26T01:42:26.019Z,4.73
2022-11-26T01:47:30.511Z,4.64
2022-11-26T01:52:32.579Z,4.56
2022-11-26T01:57:38.750Z,4.50
2022-11-26T02:02:41.848Z,4.40
2022-11-26T02:07:44.621Z,4.33
2022-11-26T02:12:47.265Z,4.27
2022-11-26T02:17:55.936Z,4.23
2022-11-26T02:23:12.226Z,4.19
2022-11-26T02:28:28.350Z,4.12
2022-11-26T02:33:40.605Z,4.05
2022-11-26T02:38:42.513Z,4.00
2022-11-26T02:43:44.544Z,3.95
2022-11-26T02:48:50.303Z,3.91
2022-11-26T02:53:53.333Z,3.87
2022-11-26T02:58:56.743Z,3.81
2022-11-26T03:04:03.751Z,3.77
2022-11-26T03:09:06.071Z,3.75
2022-11-26T03:14:08.226Z,3.76
2022-11-26T03:19:10.149Z,3.80
2022-11-26T03:24:11.981Z,3.86
2022-11-26T03:29:13.836Z,3.96
2022-11-26T03:34:15.782Z,4.08
2022-11-26T03:39:17.776Z,4.14
2022-11-26T03:44:19.677Z,4.13
2022-11-26T03:49:21.584Z,4.10
2022-11-26T03:54:23.418Z,4.09
2022-11-26T03:59:25.266Z,4.16
2022-11-26T04:04:27.124Z,4.26
2022-11-26T04:09:28.964Z,4.34
2022-11-26T04:14:30.874Z,4.35
2022-11-26T04:19:32.715Z,4.36
2022-11-26T04:24:34.926Z,4.39
2022-11-26T04:29:37.708Z,4.43
2022-11-26T04:34:39.836Z,4.46
2022-11-26T04:39:42.382Z,4.44
2022-11-26T04:44:44.235Z,4.42
2022-11-26T04:49:46.090Z,4.43
2022-11-26T04:54:47.941Z,4.49
2022-11-26T04:59:49.776Z,4.58
2022-11-26T05:04:52.096Z,4.70
2022-11-26T05:09:53.895Z,4.77
2022-11-26T05:14:55.791Z,4.83
2022-11-26T05:19:57.631Z,4.90
2022-11-26T05:24:59.441Z,5.00
2022-11-26T05:30:01.278Z,5.07
2022-11-26T05:35:03.892Z,5.07
2022-11-26T05:40:06.576Z,5.07
2022-11-26T05:45:08.785Z,5.06
2022-11-26T05:50:11.154Z,5.03
2022-11-26T05:55:13.185Z,5.00
2022-11-26T06:00:15.506Z,5.04
2022-11-26T06:05:17.503Z,5.10
2022-11-26T06:10:19.500Z,5.14
2022-11-26T06:15:21.333Z,5.19
2022-11-26T06:20:23.150Z,5.22
2022-11-26T06:25:25.008Z,5.24
2022-11-26T06:30:26.838Z,5.26
2022-11-26T06:35:28.826Z,5.34
2022-11-26T06:40:31.226Z,5.44
2022-11-26T06:45:34.808Z,5.57
2022-11-26T06:50:36.723Z,5.68
2022-11-26T06:55:38.635Z,5.75
2022-11-26T07:00:41.961Z,5.76
2022-11-26T07:05:43.776Z,5.84
2022-11-26T07:10:49.047Z,5.89
2022-11-26T07:15:52.288Z,5.95
2022-11-26T07:20:54.088Z,5.96
2022-11-26T07:25:59.624Z,5.95
2022-11-26T07:31:03.303Z,5.98
2022-11-26T07:36:14.104Z,6.04
2022-11-26T07:41:20.156Z,6.12
2022-11-26T07:46:24.084Z,6.17
2022-11-26T07:51:31.346Z,6.23
2022-11-26T07:56:33.663Z,6.32
2022-11-26T08:01:37.065Z,6.42
2022-11-26T08:06:38.949Z,6.52
2022-11-26T08:11:40.833Z,6.60
2022-11-26T08:16:42.881Z,6.60
2022-11-26T08:21:44.745Z,6.58
2022-11-26T08:26:47.103Z,6.61
2022-11-26T08:31:48.959Z,6.66
2022-11-26T08:36:54.166Z,6.72
2022-11-26T08:41:56.361Z,6.77
2022-11-26T08:46:58.158Z,6.87
2022-11-26T08:52:00.087Z,6.95
2022-11-26T08:57:01.900Z,7.02
2022-11-26T09:02:03.778Z,7.08
2022-11-26T09:07:05.562Z,7.11
2022-11-26T09:12:07.543Z,7.16
2022-11-26T09:17:12.020Z,7.17
2022-11-26T09:22:13.817Z,7.18
2022-11-26T09:27:15.594Z,7.21
2022-11-26T09:32:28.229Z,7.23
2022-11-26T09:37:34.724Z,7.32
2022-11-26T09:43:03.339Z,7.41
2022-11-26T09:48:09.529Z,7.53
2022-11-26T09:53:32.599Z,7.61
2022-11-26T09:58:42.408Z,7.69
2022-11-26T10:03:44.359Z,7.77
2022-11-26T10:09:24.761Z,7.86
2022-11-26T10:14:59.967Z,7.92
2022-11-26T10:20:20.870Z,7.98
2022-11-26T10:25:27.049Z,7.97
2022-11-26T10:30:30.870Z,7.96
2022-11-26T10:35:33.382Z,8.06
2022-11-26T10:40:35.428Z,8.16
2022-11-26T10:45:38.825Z,8.26
2022-11-26T10:50:47.643Z,8.29
2022-11-26T10:55:52.458Z,8.31
2022-11-26T11:01:01.407Z,8.33
2022-11-26T11:06:12.341Z,8.33
2022-11-26T11:11:23.699Z,8.37
2022-11-26T11:16:27.435Z,8.33
2022-11-26T11:21:34.840Z,8.35
2022-11-26T11:26:45.417Z,8.40
2022-11-26T11:31:47.239Z,8.41
2022-11-26T11:37:07.299Z,8.49
2022-11-26T11:42:24.028Z,8.55
2022-11-26T11:47:31.494Z,8.58
2022-11-26T11:52:53.831Z,8.65
2022-11-26T11:58:30.071Z,8.77
2022-11-26T12:04:02.244Z,8.85
2022-11-26T12:09:19.336Z,8.91
2022-11-26T12:14:36.357Z,8.92
2022-11-26T12:19:50.621Z,8.93
2022-11-26T12:24:57.240Z,8.93
2022-11-26T12:30:13.137Z,8.93
2022-11-26T12:35:35.428Z,8.93
2022-11-26T12:40:44.928Z,8.99
2022-11-26T12:46:08.697Z,9.03
2022-11-26T12:51:32.096Z,8.94
2022-11-26T12:56:42.289Z,8.90
2022-11-26T13:01:44.066Z,8.86
2022-11-26T13:06:51.669Z,8.77
2022-11-26T13:12:06.040Z,8.70
2022-11-26T13:17:19.290Z,8.68
2022-11-26T13:22:52.387Z,8.69
2022-11-26T13:28:09.305Z,8.71
2022-11-26T13:33:49.206Z,8.72
2022-11-26T13:39:05.382Z,8.71
2022-11-26T13:44:19.494Z,8.67
2022-11-26T13:49:43.072Z,8.67
2022-11-26T13:55:04.049Z,8.71
2022-11-26T14:00:07.604Z,8.75
2022-11-26T14:05:17.412Z,8.79
2022-11-26T14:10:42.730Z,8.82
2022-11-26T14:15:44.495Z,8.79
2022-11-26T14:21:01.672Z,8.80
2022-11-26T14:26:03.574Z,8.77
2022-11-26T14:31:25.189Z,8.76
2022-11-26T14:36:29.062Z,8.76
2022-11-26T14:41:58.944Z,8.70
2022-11-26T14:47:16.483Z,8.61
2022-11-26T14:52:29.147Z,8.50
2022-11-26T14:57:43.225Z,8.44
2022-11-26T15:02:45.977Z,8.36
2022-11-26T15:08:07.449Z,8.30
2022-11-26T15:13:30.855Z,8.30
2022-11-26T15:18:35.227Z,8.28
2022-11-26T15:23:42.006Z,8.28
2022-11-26T15:28:44.377Z,8.27
2022-11-26T15:33:47.266Z,8.26
2022-11-26T15:39:07.399Z,8.22
2022-11-26T15:44:42.510Z,8.17
2022-11-26T15:49:50.571Z,8.13
2022-11-26T15:55:15.463Z,8.07
2022-11-26T16:00:22.573Z,7.88
2022-11-26T16:05:39.420Z,7.71
2022-11-26T16:10:41.581Z,7.57
2022-11-26T16:15:50.801Z,7.50
2022-11-26T16:21:02.872Z,7.49
2022-11-26T16:26:11.666Z,7.51
2022-11-26T16:31:15.326Z,7.56
2022-11-26T16:36:21.785Z,7.62
2022-11-26T16:41:23.883Z,7.65
2022-11-26T16:46:28.087Z,7.66
2022-11-26T16:51:30.592Z,7.64
2022-11-26T16:56:37.539Z,7.62
2022-11-26T17:01:39.412Z,7.62
2022-11-26T17:06:41.780Z,7.60
2022-11-26T17:11:44.209Z,7.62
2022-11-26T17:16:46.033Z,7.57
2022-11-26T17:21:48.281Z,7.46
2022-11-26T17:26:50.149Z,7.36
2022-11-26T17:31:51.947Z,7.32
2022-11-26T17:36:59.738Z,7.27
2022-11-26T17:42:01.536Z,7.22
2022-11-26T17:47:16.817Z,7.14
2022-11-26T17:52:19.562Z,7.10
2022-11-26T17:57:22.942Z,7.09
2022-11-26T18:02:24.843Z,7.09
2022-11-26T18:07:26.788Z,7.07
2022-11-26T18:12:28.773Z,7.04
2022-11-26T18:17:31.412Z,7.02
2022-11-26T18:22:33.257Z,7.04
2022-11-26T18:27:36.178Z,7.05
2022-11-26T18:32:38.685Z,7.07
2022-11-26T18:37:40.945Z,7.10
2022-11-26T18:42:43.473Z,7.07
2022-11-26T18:47:45.352Z,7.08
2022-11-26T18:52:47.193Z,7.07
2022-11-26T18:57:49.040Z,7.04
2022-11-26T19:02:50.943Z,7.03
2022-11-26T19:07:53.127Z,7.02
2022-11-26T19:12:55.073Z,6.97
2022-11-26T19:17:57.055Z,6.91
2022-11-26T19:22:58.923Z,6.87
2022-11-26T19:28:04.688Z,6.79
2022-11-26T19:33:07.853Z,6.77
2022-11-26T19:38:09.686Z,6.82
2022-11-26T19:43:11.497Z,6.80
2022-11-26T19:48:13.362Z,6.81
2022-11-26T19:53:15.247Z,6.83
2022-11-26T19:58:17.049Z,6.84
2022-11-26T20:03:19.079Z,6.86
2022-11-26T20:08:21.212Z,6.86
2022-11-26T20:13:23.046Z,6.86
2022-11-26T20:18:24.869Z,6.85
2022-11-26T20:23:27.591Z,6.82
2022-11-26T20:28:29.791Z,6.76
2022-11-26T20:33:31.661Z,6.72
2022-11-26T20:38:34.035Z,6.68
2022-11-26T20:43:36.785Z,6.71
2022-11-26T20:48:40.308Z,6.74
2022-11-26T20:53:46.097Z,6.80
2022-11-26T20:58:49.530Z,6.79
2022-11-26T21:03:52.722Z,6.81
2022-11-26T21:08:54.579Z,6.81
2022-11-26T21:13:58.769Z,6.80
2022-11-26T21:19:01.169Z,6.80
2022-11-26T21:24:04.835Z,6.81
2022-11-26T21:29:06.673Z,6.80
2022-11-26T21:34:10.804Z,6.78
2022-11-26T21:39:16.815Z,6.75
2022-11-26T21:44:18.606Z,6.73
2022-11-26T21:49:20.546Z,6.70
2022-11-26T21:54:22.382Z,6.71
2022-11-26T21:59:24.650Z,6.75
2022-11-26T22:04:26.496Z,6.76
2022-11-26T22:09:31.431Z,6.78
2022-11-26T22:14:37.261Z,6.79
2022-11-26T22:19:39.427Z,6.81
2022-11-26T22:24:41.564Z,6.80
2022-11-26T22:29:43.392Z,6.79
2022-11-26T22:34:45.262Z,6.72
2022-11-26T22:39:52.436Z,6.76
2022-11-26T22:44:56.261Z,6.75
2022-11-26T22:49:58.172Z,6.76
2022-11-26T22:55:00.024Z,6.77
2022-11-26T23:00:01.895Z,6.78
2022-11-26T23:05:04.048Z,6.76
2022-11-26T23:10:06.292Z,6.76
2022-11-26T23:15:08.680Z,6.77
2022-11-26T23:20:11.010Z,6.79
2022-11-26T23:25:12.862Z,6.81
2022-11-26T23:30:14.978Z,6.81
2022-11-26T23:35:16.839Z,6.80
2022-11-26T23:40:18.697Z,6.77
2022-11-26T23:45:20.578Z,6.74
2022-11-26T23:50:22.543Z,6.70
2022-11-26T23:55:24.365Z,6.66
